Архив погоды в Камышлове

Метеограмма Камышлов
Воскресенье, 22 Июля
Время местн. Темп Ветер Видим Явления Облачность нижн/средн/верх Атм. давл. Влжн Точка росы ВНГО R Сост. почвы Tg s
Напр Скр Прв ур.ст ур.м изм
05:00 +8.4° С,С-В 3 - 20 км - ясно 755 767 +0.5 83% +5.6° более 2.5 км - - - -
02:00 +10.2° С,С-В 2 - 4 км - ясно 755 766 +0.4 77% +6.3° более 2.5 км - - - -
Суббота, 21 Июля
Время местн. Темп Ветер Видим Явления Облачность нижн/средн/верх Атм. давл. Влжн Точка росы ВНГО R Сост. почвы Tg s
Напр Скр Прв ур.ст ур.м изм
23:00 +12.6° С-В 2 - 4 км - ясно 754 766 +0.5 72% +7.6° более 2.5 км - - - -
20:00 +18.1° В 4 11 более 50 км - ясно 754 765 +0.1 49% +7.2° более 2.5 км 0 - - -
17:00 +20.9° В,С-В 6 - 50 км - переменная облачность 754 765 0 41% +7.1° 1 км - - - -
14:00 +20.2° В 6 12 более 50 км - переменная облачность 754 765 +0.1 47% +8.4° 1 км - - - -
11:00 +19.6° В 6 10 50 км - переменная облачность 754 765 +0.3 49% +8.7° 1 км - - - -
08:00 +16.3° В,С-В 6 - более 50 км - ясно 753 765 +0.6 66% +10° более 2.5 км 0 Влажная (без луж) +13° -
05:00 +14° С-В 3 - 20 км - ясно 753 764 +0.2 80% +10.7° более 2.5 км - - - -
02:00 +16.3° С-В 2 - 4 км - облачно с прояснениями 753 764 0 77% +12.3° 1 км - - - -
Пятница, 20 Июля
Время местн. Темп Ветер Видим Явления Облачность нижн/средн/верх Атм. давл. Влжн Точка росы ВНГО R Сост. почвы Tg s
Напр Скр Прв ур.ст ур.м изм
23:00 +16.2° В,С-В 3 - 4 км - облачно с прояснениями 753 764 +0.6 82% +13.1° 1 км - - - -
20:00 +18.4° В,С-В 5 11 более 50 км - преимущественно облачно 752 763 -0.2 78% +14.5° 1 км 1 - - -
17:00 +18.2° В 7 11 50 км небо без изменений {ливневые осадки} преимущественно облачно 752 763 +0.8 78% +14.3° 1 км - - - -
14:00 +17.8° С-В 3 - более 50 км ливневый дождь облачно 752 763 +0.6 87% +15.6° 1 км - - - -
11:00 +18.8° В,С-В 4 - 50 км - облачно 751 762 +0.2 83% +15.8° 1 км - - - -
08:00 +17.4° С-В 3 - более 50 км - облачно 751 762 +0.4 87% +15.3° 1 км 2 Сырая (есть малые или большие лужи) +17° -
05:00 +16.5° С-В 3 - 20 км небо без изменений {дождь} облачно 750 762 +0.2 91% +15° 1 км - - - -
02:00 +16.9° С,С-В 1 - 4 км слабый непрерывный дождь облачно 750 761 -0.2 91% +15.5° 600 м - - - -
Четверг, 19 Июля
Время местн. Темп Ветер Видим Явления Облачность нижн/средн/верх Атм. давл. Влжн Точка росы ВНГО R Сост. почвы Tg s
Напр Скр Прв ур.ст ур.м изм
23:00 +17.7° штиль 0 - 2 км умеренный непрерывный дождь облачно 750 762 +0.5 89% +15.9° - - - - -
20:00 +19.9° В 3 - более 50 км - облачно 750 761 +0.2 75% +15.4° 1 км 2 - - -
17:00 +21.3° В 2 - 50 км небо без изменений {ливневые осадки} облачно 750 761 -0.2 70% +15.6° 1 км - - - -
14:00 +20.4° Ю-В 2 - 4 км слабый ливневый дождь облачно 750 761 +0.4 83% +17.4° 1 км - - - -
11:00 +20.2° В,С-В 3 - 4 км слабый ливневый дождь облачно 750 761 +0.2 81% +16.9° 1 км - - - -
08:00 +19.7° Ю-В 2 - 20 км - облачно 749 760 +0.4 75% +15.2° более 2.5 км 0 Сухая (без трещин) +19° -
05:00 +17.5° В 2 - 20 км - облачно 749 760 +0.1 84% +14.7° - - - - -
02:00 +20.4° В 3 - 4 км - облачно 749 760 -0.2 68% +14.3° более 2.5 км - - - -